createdAt,value
2017-10-07T00:00:30.539Z,1605.52
2017-10-07T00:24:55.231Z,1646
2017-10-07T00:36:54.546Z,1693.03
2017-10-07T00:48:55.241Z,1634.3
2017-10-07T01:00:58.565Z,1684.42
2017-10-07T01:13:01.276Z,1705.62
2017-10-07T01:25:16.503Z,1688.91
2017-10-07T01:37:12.523Z,1686.21
2017-10-07T01:49:08.590Z,1714.74
2017-10-07T02:01:05.285Z,1716.54
2017-10-07T02:13:01.602Z,1711.66
2017-10-07T02:24:57.824Z,1677.86
2017-10-07T02:36:54.386Z,1697.91
2017-10-07T02:48:50.426Z,1624.54
2017-10-07T03:00:46.665Z,1643.55
2017-10-07T03:12:42.522Z,1616.96
2017-10-07T03:24:38.702Z,1680.05
2017-10-07T03:36:34.968Z,1701.51
2017-10-07T03:48:31.102Z,1744.55
2017-10-07T04:00:28.403Z,1690.71
2017-10-07T04:12:24.469Z,1749.69
2017-10-07T04:24:20.722Z,1610.02
2017-10-07T04:36:16.722Z,1620.55
2017-10-07T04:48:12.942Z,1702.79
2017-10-07T05:00:09.343Z,1704.46
2017-10-07T05:12:05.745Z,1758.94
2017-10-07T05:24:01.846Z,1763.44
2017-10-07T05:35:57.970Z,1845.04
2017-10-07T05:47:54.202Z,1875.62
2017-10-07T05:59:51.301Z,1882.81
2017-10-07T06:11:49.373Z,1932.15
2017-10-07T06:23:46.187Z,1987.54
2017-10-07T06:35:43.590Z,1995.89
2017-10-07T06:47:40.645Z,2000
2017-10-07T06:59:37.086Z,1892.19
2017-10-07T07:11:33.968Z,1807.13
2017-10-07T07:23:31.600Z,1804.17
2017-10-07T07:35:30.805Z,1822.03
2017-10-07T07:47:27.869Z,1814.84
2017-10-07T07:59:25.004Z,1898.62
2017-10-07T08:11:22.109Z,1870.22
2017-10-07T08:23:20.081Z,1916.09
2017-10-07T08:35:18.361Z,1992.42
2017-10-07T08:47:19.466Z,1880.63
2017-10-07T08:59:17.929Z,1925.86
2017-10-07T09:11:16.986Z,1932.03
2017-10-07T09:23:18.169Z,2000
2017-10-07T09:35:35.731Z,1998.2
2017-10-07T09:47:40.791Z,2000
2017-10-07T09:59:40.954Z,2000
2017-10-07T10:11:39.386Z,2000
2017-10-07T10:23:37.788Z,2000
2017-10-07T10:35:35.849Z,1994.47
2017-10-07T10:47:34.124Z,1994.35
2017-10-07T10:59:34.586Z,1958.62
2017-10-07T11:11:34.264Z,1944.36
2017-10-07T11:23:33.927Z,1952.33
2017-10-07T11:35:34.805Z,1949.37
2017-10-07T11:47:37.248Z,1955.16
2017-10-07T11:59:35.706Z,2000
2017-10-07T12:11:34.605Z,2000
2017-10-07T12:23:32.566Z,1997.69
2017-10-07T12:35:33.022Z,2000
2017-10-07T12:47:33.088Z,1999.87
2017-10-07T12:59:32.285Z,2000
2017-10-07T13:11:34.090Z,1999.87
2017-10-07T13:23:33.272Z,1999.87
2017-10-07T13:35:32.368Z,2000
2017-10-07T13:47:34.026Z,2000
2017-10-07T13:59:37.564Z,1982.91
2017-10-07T14:11:46.805Z,1981.11
2017-10-07T14:23:50.331Z,1988.44
2017-10-07T14:35:49.332Z,1996.53
2017-10-07T14:47:51.525Z,1986.25
2017-10-07T14:59:53.427Z,1993.19
2017-10-07T15:11:56.416Z,1970.96
2017-10-07T15:24:08.420Z,1974.04
2017-10-07T15:36:12.645Z,1965.82
2017-10-07T15:48:40.088Z,1987.66
2017-10-07T16:12:46.110Z,1975.46
2017-10-07T16:25:03.365Z,2000
2017-10-07T16:37:24.436Z,2000
2017-10-07T17:02:04.672Z,1971.73
2017-10-07T17:26:08.133Z,1991.39
2017-10-07T17:38:40.932Z,1978.93
2017-10-07T17:50:50.879Z,1989.59
2017-10-07T18:02:48.746Z,1995.89
2017-10-07T18:50:42.270Z,1998.59
2017-10-07T19:02:41.904Z,1999.61
2017-10-07T19:14:42.887Z,1953.61
2017-10-07T19:26:41.250Z,1998.46
2017-10-07T19:38:41.008Z,2000
2017-10-07T19:50:43.386Z,1998.2
2017-10-07T20:02:42.945Z,1990.62
2017-10-07T20:14:41.487Z,1994.09
2017-10-07T20:26:39.548Z,1997.82
2017-10-07T20:38:37.794Z,2000
2017-10-07T20:50:33.690Z,2000
2017-10-07T21:02:30.860Z,1998.97
2017-10-07T21:14:28.284Z,2000
2017-10-07T21:26:27.512Z,1997.3
2017-10-07T21:38:26.232Z,1999.49
2017-10-07T21:50:24.789Z,2000
2017-10-07T22:02:22.487Z,2000
2017-10-07T22:14:19.954Z,1996.02
2017-10-07T22:26:18.330Z,1980.85
2017-10-07T22:38:17.143Z,1961.84
2017-10-07T22:50:13.942Z,1972.63
2017-10-07T23:02:10.910Z,1928.43
2017-10-07T23:14:07.451Z,1961.07
2017-10-07T23:26:03.968Z,1911.08
2017-10-07T23:37:59.301Z,1911.21
2017-10-07T23:49:56.069Z,1939.48
